Time;durP1;ratioP1;P1;durP2;ratioP2;P2;SDS_P1;SDS_P2;PMS_P1;PMS_P2;Temp;Humidity;BMP_temperature;BMP_pressure;BME280_temperature;BME280_humidity;BME280_pressure;Samples;Min_cycle;Max_cycle;Signal;HPM_P1;HPM_P2
2022/12/23 00:01:02;;;;;;;7.00;5.15;;;16.60;53.00;;;;;;4965343;29;20031;-62
2022/12/23 00:03:29;;;;;;;6.78;5.05;;;16.50;53.10;;;;;;4965332;29;20035;-63
2022/12/23 00:05:55;;;;;;;7.43;5.50;;;16.50;53.20;;;;;;4965217;29;20027;-63
2022/12/23 00:08:21;;;;;;;8.68;6.00;;;16.50;53.20;;;;;;4965101;29;20058;-64
2022/12/23 00:10:49;;;;;;;6.68;5.35;;;16.50;53.20;;;;;;4965008;29;20051;-62
2022/12/23 00:16:09;;;;;;;7.68;5.05;;;16.60;52.80;;;;;;4965037;29;20037;-61
2022/12/23 00:18:35;;;;;;;5.97;4.82;;;16.70;52.50;;;;;;4964985;29;20042;-62
2022/12/23 00:21:06;;;;;;;6.75;5.25;;;16.90;52.20;;;;;;4963719;29;20226;-62
2022/12/23 00:23:33;;;;;;;5.18;4.32;;;17.00;51.80;;;;;;4964857;29;20027;-63
2022/12/23 00:25:59;;;;;;;6.85;5.10;;;17.10;51.60;;;;;;4964482;28;20046;-63
2022/12/23 00:28:26;;;;;;;6.13;4.68;;;17.20;51.40;;;;;;4964807;29;20094;-62
2022/12/23 00:31:00;;;;;;;5.93;4.43;;;17.30;51.40;;;;;;4964924;29;20086;-61
2022/12/23 00:33:29;;;;;;;6.85;5.07;;;17.30;51.30;;;;;;4964765;29;20294;-61
2022/12/23 00:35:55;;;;;;;6.65;4.90;;;17.30;51.30;;;;;;4964691;29;20027;-63
2022/12/23 00:44:04;;;;;;;6.07;4.75;;;17.30;51.40;;;;;;4964605;29;20410;-62
2022/12/23 00:46:30;;;;;;;6.43;5.10;;;17.20;51.70;;;;;;4964524;29;20057;-63
2022/12/23 00:51:40;;;;;;;6.20;5.07;;;16.90;52.30;;;;;;4964440;29;20030;-62
2022/12/23 00:54:07;;;;;;;5.72;4.68;;;16.80;52.60;;;;;;4964213;29;20050;-62
2022/12/23 00:56:32;;;;;;;6.13;4.80;;;16.80;52.60;;;;;;4964345;29;20033;-62
2022/12/23 00:58:59;;;;;;;7.53;5.43;;;16.80;52.80;;;;;;4964279;29;20019;-62
2022/12/23 01:07:00;;;;;;;6.20;4.90;;;16.70;52.90;;;;;;4964191;29;20561;-61
2022/12/23 01:09:26;;;;;;;6.80;5.00;;;16.60;53.00;;;;;;4963973;29;20251;-62
2022/12/23 01:11:52;;;;;;;11.80;5.25;;;16.50;53.00;;;;;;4964103;29;20031;-61
2022/12/23 01:14:18;;;;;;;5.88;4.80;;;16.50;53.20;;;;;;4963952;29;20027;-63
2022/12/23 01:16:46;;;;;;;6.35;4.75;;;16.50;53.30;;;;;;4964018;29;20023;-62
2022/12/23 01:19:13;;;;;;;5.80;4.82;;;16.50;53.20;;;;;;4963985;29;20027;-61
2022/12/23 01:21:38;;;;;;;6.53;4.95;;;16.50;53.00;;;;;;4963951;29;20035;-61
2022/12/23 01:24:05;;;;;;;7.13;5.13;;;16.50;53.10;;;;;;4963842;29;20019;-62
2022/12/23 01:26:30;;;;;;;6.07;4.85;;;16.50;53.00;;;;;;4963807;29;20031;-62
2022/12/23 01:28:57;;;;;;;6.78;4.65;;;16.60;52.90;;;;;;4963803;29;20030;-61
2022/12/23 01:31:25;;;;;;;5.75;4.50;;;16.70;52.60;;;;;;4963705;29;20042;-63
2022/12/23 01:33:51;;;;;;;6.40;4.68;;;16.90;52.20;;;;;;4963565;29;20104;-63
2022/12/23 01:36:17;;;;;;;5.53;4.00;;;17.00;51.90;;;;;;4963005;28;20034;-63
2022/12/23 01:38:43;;;;;;;6.20;4.50;;;17.10;51.70;;;;;;4963551;29;20027;-61
2022/12/23 01:44:49;;;;;;;6.10;4.45;;;17.30;51.30;;;;;;4963553;29;20030;-63
2022/12/23 01:47:53;;;;;;;5.30;4.30;;;17.30;51.40;;;;;;4963447;29;20038;-63
2022/12/23 01:50:34;;;;;;;6.13;4.30;;;17.30;51.50;;;;;;4963414;29;20094;-61
2022/12/23 01:53:07;;;;;;;7.05;4.60;;;17.40;51.20;;;;;;4962115;29;20226;-61
2022/12/23 01:55:47;;;;;;;6.45;4.65;;;17.30;51.30;;;;;;4963358;29;20520;-62
2022/12/23 01:58:18;;;;;;;6.13;4.22;;;17.30;51.40;;;;;;4963403;29;20030;-62
2022/12/23 02:03:43;;;;;;;5.40;4.38;;;17.00;52.10;;;;;;4963291;29;20038;-63
2022/12/23 02:09:15;;;;;;;5.93;4.15;;;16.80;52.80;;;;;;4963121;29;20171;-62
2022/12/23 02:12:20;;;;;;;6.72;4.75;;;16.80;52.80;;;;;;4963120;29;20098;-63
2022/12/23 02:18:04;;;;;;;5.22;4.55;;;16.70;52.90;;;;;;4963094;29;20300;-62
2022/12/23 02:20:48;;;;;;;5.90;4.40;;;16.70;53.00;;;;;;4963057;29;20019;-62
2022/12/23 02:23:33;;;;;;;5.88;3.97;;;16.60;53.10;;;;;;4962979;29;20031;-61
2022/12/23 02:26:23;;;;;;;7.70;5.30;;;16.60;53.20;;;;;;4962957;29;20440;-62
2022/12/23 02:29:05;;;;;;;6.93;5.03;;;16.50;53.20;;;;;;4962920;29;20023;-62
2022/12/23 02:32:02;;;;;;;6.82;4.65;;;16.50;53.30;;;;;;4961693;29;20022;-62
2022/12/23 02:34:39;;;;;;;6.82;4.55;;;16.50;53.10;;;;;;4960491;29;20302;-63
2022/12/23 02:37:28;;;;;;;7.10;4.80;;;16.50;53.10;;;;;;4962824;29;20279;-63
2022/12/23 02:40:05;;;;;;;6.78;4.97;;;16.60;53.10;;;;;;4962847;29;20023;-61
2022/12/23 02:42:36;;;;;;;5.57;4.45;;;16.70;52.80;;;;;;4962839;29;20326;-62
2022/12/23 02:45:14;;;;;;;5.13;4.03;;;16.80;52.60;;;;;;4962787;29;20023;-63
2022/12/23 02:47:48;;;;;;;6.20;4.68;;;16.90;52.10;;;;;;4964010;28;20027;-63
2022/12/23 02:50:19;;;;;;;6.13;4.30;;;17.10;51.90;;;;;;4966641;29;20027;-62
2022/12/23 02:52:48;;;;;;;5.20;4.25;;;17.20;51.50;;;;;;4966660;29;20027;-62
2022/12/23 02:55:23;;;;;;;6.47;4.65;;;17.30;51.30;;;;;;4966489;29;20031;-62
2022/12/23 02:57:53;;;;;;;6.38;5.15;;;17.30;51.30;;;;;;4966529;29;20031;-61
2022/12/23 03:00:21;;;;;;;5.63;4.00;;;17.30;51.30;;;;;;4966539;29;20027;-61
2022/12/23 03:02:47;;;;;;;6.13;4.75;;;17.20;51.60;;;;;;4966378;29;20315;-62
2022/12/23 03:05:44;;;;;;;6.13;4.80;;;17.20;51.90;;;;;;4966418;29;20039;-62
2022/12/23 03:08:30;;;;;;;6.72;4.72;;;17.10;52.00;;;;;;4962113;29;20316;-62
2022/12/23 03:11:09;;;;;;;6.05;4.50;;;17.00;52.20;;;;;;4966313;29;20051;-62
2022/12/23 03:13:55;;;;;;;5.72;4.50;;;16.90;52.30;;;;;;4966203;29;20031;-62
2022/12/23 03:16:21;;;;;;;6.57;5.20;;;16.80;52.60;;;;;;4966301;29;20337;-62
2022/12/23 03:19:25;;;;;;;6.63;4.60;;;16.70;52.70;;;;;;4966169;29;20511;-62
2022/12/23 03:22:35;;;;;;;5.80;4.28;;;16.70;53.00;;;;;;4966064;29;20131;-62
2022/12/23 03:25:04;;;;;;;6.43;4.25;;;16.70;53.10;;;;;;4964865;29;20089;-62
2022/12/23 03:27:32;;;;;;;;;;;16.60;53.10;;;;;;4966480;29;20030;-62
2022/12/23 03:30:01;;;;;;;;;;;16.50;53.10;;;;;;4966412;29;19950;-63
2022/12/23 03:32:32;;;;;;;5.57;4.20;;;16.50;53.20;;;;;;4965956;29;19961;-62
2022/12/23 03:35:00;;;;;;;5.40;4.05;;;16.50;53.20;;;;;;4965901;29;20030;-62
2022/12/23 03:37:28;;;;;;;6.05;4.95;;;16.60;53.10;;;;;;4965835;29;20029;-62
2022/12/23 03:40:09;;;;;;;;;;;16.60;52.90;;;;;;4966260;29;20300;-62
2022/12/23 03:42:38;;;;;;;4.30;3.85;;;16.60;52.80;;;;;;4965926;29;19911;-62
2022/12/23 03:45:14;;;;;;;5.05;3.97;;;16.60;52.80;;;;;;4965627;29;20031;-62
2022/12/23 03:47:47;;;;;;;5.75;3.97;;;16.70;52.80;;;;;;4965609;29;20263;-63
2022/12/23 03:50:17;;;;;;;4.93;4.20;;;16.70;52.70;;;;;;4964389;29;20035;-65
2022/12/23 03:52:45;;;;;;;6.22;5.00;;;16.80;53.10;;;;;;4965508;29;20056;-62
2022/12/23 03:55:15;;;;;;;;;;;16.90;52.20;;;;;;4965881;29;20046;-62
2022/12/23 03:57:57;;;;;;;4.93;4.13;;;17.10;52.10;;;;;;4965338;29;19910;-62
2022/12/23 04:00:26;;;;;;;5.25;4.05;;;17.20;51.70;;;;;;4964722;28;20031;-62
2022/12/23 04:02:54;;;;;;;;;;;17.30;51.40;;;;;;4965825;29;20031;-62
2022/12/23 04:05:31;;;;;;;5.20;4.32;;;17.40;51.30;;;;;;4965358;29;20022;-62
2022/12/23 04:08:00;;;;;;;6.15;4.72;;;17.40;51.20;;;;;;4965286;29;20050;-62
2022/12/23 04:10:26;;;;;;;5.32;4.40;;;17.40;51.10;;;;;;4964956;29;20055;-61
2022/12/23 04:12:53;;;;;;;5.10;4.25;;;17.40;51.70;;;;;;4965157;29;20035;-62
2022/12/23 04:15:25;;;;;;;5.07;4.18;;;17.30;51.30;;;;;;4965063;29;20099;-62
2022/12/23 04:17:53;;;;;;;5.95;4.47;;;17.30;51.50;;;;;;4965121;29;20337;-62
2022/12/23 04:20:19;;;;;;;5.32;4.13;;;17.20;51.60;;;;;;4963745;29;20488;-62
2022/12/23 04:22:45;;;;;;;6.80;4.80;;;17.00;52.00;;;;;;4965001;29;20031;-62
2022/12/23 04:25:13;;;;;;;5.20;4.05;;;16.90;52.20;;;;;;4964885;29;20042;-62
2022/12/23 04:27:40;;;;;;;5.45;4.60;;;16.80;52.70;;;;;;4964895;29;20531;-64
2022/12/23 04:30:07;;;;;;;5.65;4.38;;;16.80;52.80;;;;;;4964828;29;20043;-62
2022/12/23 04:32:33;;;;;;;4.97;4.32;;;16.80;52.80;;;;;;4964563;29;20054;-62
2022/12/23 04:34:59;;;;;;;5.53;4.55;;;16.70;52.90;;;;;;4964679;29;20023;-62
2022/12/23 04:37:25;;;;;;;6.30;4.22;;;16.70;53.10;;;;;;4964689;29;20058;-62
2022/12/23 04:39:51;;;;;;;5.57;4.28;;;16.60;53.20;;;;;;4964601;29;20057;-62
2022/12/23 04:42:16;;;;;;;6.18;4.38;;;16.50;53.20;;;;;;4964534;29;20343;-62
2022/12/23 04:44:42;;;;;;;5.65;4.40;;;16.50;53.30;;;;;;4964676;29;20031;-62
2022/12/23 04:47:08;;;;;;;5.60;4.35;;;16.60;53.20;;;;;;4964558;29;20046;-62
2022/12/23 04:49:34;;;;;;;5.40;4.18;;;16.50;53.00;;;;;;4964479;29;20247;-62
2022/12/23 04:52:00;;;;;;;6.00;4.60;;;16.60;53.00;;;;;;4964506;29;20027;-62
2022/12/23 04:54:25;;;;;;;5.38;3.95;;;16.60;52.70;;;;;;4964291;29;20035;-63
2022/12/23 04:56:51;;;;;;;5.32;4.20;;;16.70;52.70;;;;;;4964404;29;20042;-62
2022/12/23 04:59:17;;;;;;;6.57;4.53;;;16.70;52.70;;;;;;4964341;29;20070;-62
2022/12/23 05:01:43;;;;;;;5.55;3.90;;;16.70;52.60;;;;;;4964487;29;20027;-62
2022/12/23 05:04:09;;;;;;;5.05;4.03;;;16.90;52.30;;;;;;4964261;29;20018;-62
2022/12/23 05:06:36;;;;;;;4.82;4.22;;;17.00;52.00;;;;;;4964157;29;20035;-63
2022/12/23 05:09:03;;;;;;;5.45;4.22;;;17.20;51.70;;;;;;4963994;29;20066;-62
2022/12/23 05:11:28;;;;;;;5.15;4.30;;;17.30;51.40;;;;;;4963186;28;20035;-62
2022/12/23 05:13:54;;;;;;;4.65;3.72;;;17.30;51.20;;;;;;4964002;29;20070;-62
2022/12/23 05:16:20;;;;;;;5.47;3.78;;;17.40;51.20;;;;;;4963994;29;20091;-63
2022/12/23 05:18:46;;;;;;;5.47;3.97;;;17.40;51.10;;;;;;4963923;29;20027;-62
2022/12/23 05:21:12;;;;;;;5.68;4.18;;;17.40;51.10;;;;;;4963907;29;20086;-61
2022/12/23 05:23:38;;;;;;;4.72;3.85;;;17.40;51.20;;;;;;4964034;29;20026;-62
2022/12/23 05:26:04;;;;;;;5.30;4.10;;;17.40;51.30;;;;;;4963852;29;20230;-63
2022/12/23 05:28:29;;;;;;;6.43;4.78;;;17.20;51.40;;;;;;4963819;29;20022;-63
2022/12/23 05:31:04;;;;;;;4.93;4.25;;;17.10;51.90;;;;;;4963792;29;20027;-62
2022/12/23 05:33:32;;;;;;;5.00;3.50;;;17.00;52.20;;;;;;4963636;29;20030;-62
2022/12/23 05:35:58;;;;;;;7.27;5.00;;;16.90;52.40;;;;;;4963772;29;20031;-62
2022/12/23 05:38:24;;;;;;;4.43;4.00;;;16.90;52.70;;;;;;4963667;29;20078;-62
2022/12/23 05:40:50;;;;;;;5.05;3.80;;;16.80;52.80;;;;;;4963664;29;20035;-62
2022/12/23 05:43:17;;;;;;;4.45;3.90;;;16.70;52.70;;;;;;4963556;29;20027;-62
2022/12/23 05:45:43;;;;;;;6.30;4.32;;;16.70;52.90;;;;;;4963578;29;20023;-62
2022/12/23 05:48:10;;;;;;;5.15;4.03;;;16.70;53.10;;;;;;4963482;29;20097;-61
2022/12/23 05:50:36;;;;;;;4.57;4.03;;;16.60;53.10;;;;;;4963473;29;20373;-63
2022/12/23 05:53:02;;;;;;;6.00;4.97;;;16.60;53.20;;;;;;4963383;29;20094;-62
2022/12/23 05:55:28;;;;;;;5.15;3.92;;;16.50;53.30;;;;;;4963265;29;20031;-64
2022/12/23 05:57:54;;;;;;;5.75;4.10;;;16.50;53.20;;;;;;4963251;29;20228;-63
2022/12/23 06:00:20;;;;;;;4.63;3.67;;;16.60;53.00;;;;;;4963219;29;20034;-62
2022/12/23 06:02:46;;;;;;;5.07;4.20;;;16.60;52.70;;;;;;4963227;29;20062;-62
2022/12/23 06:05:13;;;;;;;6.03;4.28;;;16.70;52.70;;;;;;4963205;29;20035;-62
2022/12/23 06:07:39;;;;;;;6.35;4.22;;;16.70;52.80;;;;;;4963152;29;20094;-62
2022/12/23 06:10:06;;;;;;;5.63;4.18;;;16.70;52.80;;;;;;4962931;29;20066;-61
2022/12/23 06:12:33;;;;;;;4.72;3.90;;;16.80;52.30;;;;;;4963005;29;20438;-63
2022/12/23 06:14:58;;;;;;;5.45;4.15;;;17.00;52.10;;;;;;4945720;29;20391;-63
2022/12/23 06:17:24;;;;;;;5.15;4.15;;;17.10;51.80;;;;;;4963041;29;20019;-62
2022/12/23 06:19:50;;;;;;;5.05;3.95;;;17.20;51.50;;;;;;4963054;29;20023;-64
2022/12/23 06:22:16;;;;;;;4.63;3.78;;;17.30;51.40;;;;;;4962755;28;20211;-63
2022/12/23 06:24:43;;;;;;;4.45;3.65;;;17.40;51.40;;;;;;4962988;29;20054;-62
2022/12/23 06:27:09;;;;;;;5.13;4.30;;;17.40;51.20;;;;;;4962986;29;20042;-62
2022/12/23 06:29:35;;;;;;;6.03;4.40;;;17.50;51.10;;;;;;4962778;29;20315;-62
2022/12/23 06:32:01;;;;;;;5.47;3.92;;;17.50;50.90;;;;;;4962812;29;20030;-63
2022/12/23 06:34:26;;;;;;;4.78;3.95;;;17.50;50.90;;;;;;4962774;29;20026;-62
2022/12/23 06:36:52;;;;;;;6.25;4.15;;;17.50;51.10;;;;;;4962806;29;20098;-62
2022/12/23 06:39:19;;;;;;;6.05;4.35;;;17.40;51.30;;;;;;4962829;29;20031;-62
2022/12/23 06:41:45;;;;;;;6.38;4.68;;;17.30;51.60;;;;;;4962745;29;20031;-62
2022/12/23 06:44:10;;;;;;;4.32;3.55;;;17.10;51.80;;;;;;4962728;29;20027;-62
2022/12/23 06:46:37;;;;;;;4.85;4.05;;;17.00;52.10;;;;;;4962729;29;20330;-63
2022/12/23 06:49:03;;;;;;;5.95;4.35;;;17.00;52.30;;;;;;4962699;29;20031;-62
2022/12/23 06:51:29;;;;;;;5.97;4.47;;;16.90;52.50;;;;;;4962670;29;20028;-62
2022/12/23 06:53:55;;;;;;;5.50;4.55;;;16.80;52.70;;;;;;4962614;29;20038;-62
2022/12/23 06:56:21;;;;;;;4.65;3.90;;;16.80;52.70;;;;;;4962659;29;20127;-62
2022/12/23 06:58:48;;;;;;;5.22;3.90;;;16.80;52.80;;;;;;4962660;29;20023;-62
2022/12/23 07:01:13;;;;;;;5.03;3.88;;;16.70;52.70;;;;;;4962614;29;20031;-62
2022/12/23 07:03:39;;;;;;;6.35;4.22;;;16.70;53.00;;;;;;4962635;29;20086;-62
2022/12/23 07:06:05;;;;;;;5.10;3.70;;;16.60;53.10;;;;;;4962600;29;20034;-62
2022/12/23 07:08:31;;;;;;;5.28;4.53;;;16.60;53.30;;;;;;4962640;29;20033;-64
2022/12/23 07:10:58;;;;;;;4.68;4.07;;;16.60;53.20;;;;;;4943273;29;20031;-62
2022/12/23 07:13:24;;;;;;;5.40;4.45;;;16.60;53.00;;;;;;4943526;29;20226;-62
2022/12/23 07:15:50;;;;;;;6.72;4.90;;;16.60;52.80;;;;;;4943374;29;20024;-62
2022/12/23 07:18:16;;;;;;;6.22;4.55;;;16.60;52.80;;;;;;4943293;29;20032;-62
2022/12/23 07:20:41;;;;;;;5.07;4.40;;;16.60;52.50;;;;;;4943256;29;20378;-62
2022/12/23 07:23:07;;;;;;;4.70;3.72;;;16.70;52.70;;;;;;4943198;29;20020;-61
2022/12/23 07:25:33;;;;;;;5.45;4.07;;;16.70;52.60;;;;;;4943295;29;20039;-62
2022/12/23 07:27:59;;;;;;;4.78;4.28;;;16.80;52.30;;;;;;4943256;29;20051;-62
2022/12/23 07:30:25;;;;;;;5.88;4.60;;;17.00;51.90;;;;;;4943258;29;20041;-62
2022/12/23 07:32:51;;;;;;;5.22;4.07;;;17.10;51.70;;;;;;4943159;29;20027;-62
2022/12/23 07:35:17;;;;;;;4.93;3.90;;;17.20;51.60;;;;;;4944927;29;20032;-62
2022/12/23 07:37:43;;;;;;;5.00;3.97;;;17.30;51.40;;;;;;4946633;29;20066;-64
2022/12/23 07:40:10;;;;;;;4.63;3.78;;;17.40;51.20;;;;;;4946649;29;20362;-62
2022/12/23 07:42:36;;;;;;;4.97;3.85;;;17.40;51.10;;;;;;4946366;29;20035;-62
2022/12/23 07:45:03;;;;;;;4.60;4.10;;;17.50;51.00;;;;;;4946531;29;20037;-62
2022/12/23 07:47:29;;;;;;;5.35;4.15;;;17.50;51.00;;;;;;4946473;29;20043;-62
2022/12/23 07:49:55;;;;;;;4.70;4.20;;;17.60;51.00;;;;;;4946430;29;20315;-63
2022/12/23 07:52:21;;;;;;;5.70;4.47;;;17.50;50.90;;;;;;4946419;29;20043;-62
2022/12/23 07:54:50;;;;;;;4.80;4.22;;;17.50;51.10;;;;;;4946292;29;20046;-62
2022/12/23 07:57:15;;;;;;;4.93;4.40;;;17.40;51.40;;;;;;4946468;29;20030;-63
2022/12/23 07:59:41;;;;;;;6.10;4.30;;;17.20;51.70;;;;;;4946299;29;20024;-62
2022/12/23 08:02:09;;;;;;;4.57;4.07;;;17.10;52.00;;;;;;4946198;29;20030;-62
2022/12/23 08:04:35;;;;;;;5.28;3.90;;;17.00;52.20;;;;;;4946165;29;20043;-62
2022/12/23 08:07:01;;;;;;;5.15;4.10;;;17.00;52.40;;;;;;4946073;29;20043;-62
2022/12/23 08:09:27;;;;;;;4.90;4.05;;;16.90;52.40;;;;;;4953162;29;20102;-62
2022/12/23 08:11:52;;;;;;;5.18;3.97;;;16.90;52.50;;;;;;4965236;29;20054;-62
2022/12/23 08:14:18;;;;;;;6.30;4.57;;;16.90;52.60;;;;;;4965029;29;20031;-62
2022/12/23 08:16:44;;;;;;;5.07;3.85;;;16.80;52.80;;;;;;4965101;29;20023;-62
2022/12/23 08:19:10;;;;;;;5.22;4.40;;;16.80;52.80;;;;;;4965100;29;20031;-63
2022/12/23 08:21:36;;;;;;;5.43;3.92;;;16.70;52.80;;;;;;4965080;29;20216;-62
2022/12/23 08:24:01;;;;;;;5.05;4.25;;;16.70;53.10;;;;;;4964967;29;20342;-63
2022/12/23 08:26:27;;;;;;;4.50;3.70;;;16.60;53.00;;;;;;4963557;29;20031;-64
2022/12/23 08:28:53;;;;;;;5.63;4.72;;;16.60;53.10;;;;;;4964954;29;20035;-61
2022/12/23 08:31:22;;;;;;;4.70;4.10;;;16.60;53.00;;;;;;4964862;29;20378;-63
2022/12/23 08:33:50;;;;;;;7.47;4.07;;;16.60;52.60;;;;;;4964639;29;20235;-63
2022/12/23 08:36:21;;;;;;;6.00;4.18;;;16.60;52.70;;;;;;4964717;29;20020;-62
2022/12/23 08:38:47;;;;;;;5.95;4.35;;;16.70;52.70;;;;;;4964765;29;20033;-62
2022/12/23 08:41:16;;;;;;;4.60;3.78;;;16.70;52.80;;;;;;4964633;29;20110;-63
2022/12/23 08:43:43;;;;;;;5.72;4.38;;;16.80;52.50;;;;;;4964699;29;20307;-61
2022/12/23 08:46:10;;;;;;;5.03;4.40;;;17.00;51.90;;;;;;4964412;28;20087;-62
2022/12/23 08:48:36;;;;;;;5.63;3.95;;;17.20;51.40;;;;;;4964566;29;20034;-62
2022/12/23 08:51:07;;;;;;;5.25;3.67;;;17.40;51.20;;;;;;4964467;29;20038;-62
2022/12/23 08:53:34;;;;;;;5.20;3.85;;;17.50;50.80;;;;;;4964334;29;20407;-61
2022/12/23 08:56:06;;;;;;;5.85;4.22;;;17.60;50.50;;;;;;4964404;29;20078;-62
2022/12/23 08:58:36;;;;;;;4.10;3.58;;;17.70;50.50;;;;;;4964356;29;20078;-62
2022/12/23 09:01:08;;;;;;;5.28;3.97;;;17.70;50.40;;;;;;4947055;29;20030;-62
2022/12/23 09:03:35;;;;;;;5.20;3.78;;;17.70;50.50;;;;;;4964316;29;20027;-62
2022/12/23 09:06:11;;;;;;;4.88;4.22;;;17.60;50.80;;;;;;4964160;29;20023;-62
2022/12/23 09:08:39;;;;;;;4.60;3.80;;;17.60;50.90;;;;;;4964017;29;20138;-63
2022/12/23 09:11:12;;;;;;;5.03;3.97;;;17.50;51.10;;;;;;4964080;29;20019;-62
2022/12/23 09:13:38;;;;;;;4.70;3.80;;;17.40;51.30;;;;;;4963997;29;20035;-61
2022/12/23 09:16:04;;;;;;;5.28;3.70;;;17.30;51.50;;;;;;4963348;29;20038;-62
2022/12/23 09:18:30;;;;;;;5.82;4.15;;;17.30;51.60;;;;;;4963913;29;20015;-63
2022/12/23 09:21:01;;;;;;;4.90;4.05;;;17.30;51.70;;;;;;4963959;29;20275;-62
2022/12/23 09:23:27;;;;;;;5.18;4.20;;;17.30;51.40;;;;;;4963952;29;20087;-62
2022/12/23 09:25:54;;;;;;;4.30;3.70;;;17.30;51.40;;;;;;4963843;29;20019;-63
2022/12/23 09:28:21;;;;;;;5.25;4.00;;;17.40;51.40;;;;;;4963767;29;20019;-62
2022/12/23 09:30:47;;;;;;;4.38;3.38;;;17.30;51.50;;;;;;4963723;29;20047;-62
2022/12/23 09:33:13;;;;;;;5.82;4.35;;;17.40;51.30;;;;;;4963646;29;20045;-63
2022/12/23 09:35:39;;;;;;;5.32;4.35;;;17.40;51.10;;;;;;4963569;29;20131;-63
2022/12/23 09:38:05;;;;;;;5.10;4.28;;;17.40;51.20;;;;;;4963607;29;20038;-61
2022/12/23 09:40:34;;;;;;;4.00;3.60;;;17.30;51.40;;;;;;4962205;29;20015;-62
2022/12/23 09:43:22;;;;;;;4.43;3.70;;;17.20;51.60;;;;;;4963474;29;20090;-62
2022/12/23 09:46:00;;;;;;;4.82;3.70;;;17.10;51.80;;;;;;4963353;29;20031;-61
2022/12/23 09:48:32;;;;;;;5.15;4.20;;;17.10;51.90;;;;;;4963467;29;20023;-62
2022/12/23 09:51:01;;;;;;;5.25;3.95;;;17.00;51.90;;;;;;4963398;29;20031;-61
2022/12/23 09:53:42;;;;;;;4.63;4.00;;;17.00;52.00;;;;;;4963272;29;20098;-62
2022/12/23 09:56:20;;;;;;;4.57;4.03;;;17.00;52.20;;;;;;4963291;29;20070;-62
2022/12/23 09:59:15;;;;;;;5.38;4.05;;;17.00;52.10;;;;;;4962702;28;20347;-62
2022/12/23 10:01:49;;;;;;;5.07;4.20;;;16.90;52.20;;;;;;4954176;29;20038;-62
2022/12/23 10:04:42;;;;;;;5.80;4.25;;;16.90;52.40;;;;;;4963143;29;20083;-62
2022/12/23 10:07:31;;;;;;;37.97;7.25;;;16.90;52.30;;;;;;4963143;29;20038;-63
2022/12/23 10:10:02;;;;;;;23.83;12.15;;;17.00;52.30;;;;;;4957390;29;20054;-67
2022/12/23 10:12:39;;;;;;;29.25;8.18;;;16.70;48.70;;;;;;4963137;29;20106;-65
2022/12/23 10:15:27;;;;;;;25.63;6.22;;;16.70;51.60;;;;;;4963060;29;20038;-63
2022/12/23 10:17:58;;;;;;;26.05;11.75;;;16.90;52.00;;;;;;4963047;29;20038;-63
2022/12/23 10:20:45;;;;;;;25.13;10.65;;;16.90;48.30;;;;;;4963011;29;20605;-65
2022/12/23 10:23:28;;;;;;;39.53;10.40;;;16.10;52.70;;;;;;4962985;29;20019;-64
2022/12/23 10:25:57;;;;;;;20.98;7.63;;;16.40;52.40;;;;;;4962892;29;20278;-64
2022/12/23 10:28:24;;;;;;;15.43;5.63;;;16.70;52.20;;;;;;4962816;29;20023;-68
2022/12/23 10:31:02;;;;;;;16.17;5.82;;;17.00;51.90;;;;;;4962915;29;20031;-67
2022/12/23 10:33:44;;;;;;;19.40;5.95;;;17.20;51.40;;;;;;4962945;29;20029;-63
2022/12/23 10:36:55;;;;;;;17.88;6.20;;;17.30;51.10;;;;;;4962970;29;20029;-63
2022/12/23 10:40:02;;;;;;;17.92;6.47;;;17.30;51.20;;;;;;4952914;29;20041;-64
2022/12/23 10:43:04;;;;;;;10.53;5.90;;;17.30;51.30;;;;;;4962919;29;20106;-66
2022/12/23 10:45:38;;;;;;;17.42;5.50;;;17.20;51.50;;;;;;4962825;29;20070;-62
2022/12/23 10:48:20;;;;;;;19.75;6.43;;;17.20;51.60;;;;;;4962638;29;20035;-61
2022/12/23 10:50:50;;;;;;;21.00;6.43;;;17.10;52.10;;;;;;4962773;29;20031;-64
2022/12/23 10:53:40;;;;;;;13.27;5.18;;;17.10;52.20;;;;;;4962522;29;20023;-61
2022/12/23 10:56:07;;;;;;;14.75;5.32;;;17.00;52.10;;;;;;4958818;29;20114;-62
2022/12/23 10:58:40;;;;;;;7.65;5.22;;;17.00;52.30;;;;;;4962800;29;20022;-63
2022/12/23 11:01:07;;;;;;;21.42;5.88;;;17.00;52.90;;;;;;4962692;29;20322;-62
2022/12/23 11:03:55;;;;;;;22.15;5.72;;;17.00;52.80;;;;;;4962662;29;20019;-62
2022/12/23 11:06:23;;;;;;;18.80;5.90;;;17.00;52.50;;;;;;4962633;29;20030;-62
2022/12/23 11:08:49;;;;;;;18.08;7.32;;;17.00;53.60;;;;;;4962460;28;20054;-62
2022/12/23 11:11:15;;;;;;;18.00;5.57;;;16.80;54.00;;;;;;4966132;29;20390;-61
2022/12/23 11:13:43;;;;;;;19.40;5.75;;;16.80;54.00;;;;;;4966166;29;20035;-62
2022/12/23 11:16:14;;;;;;;21.80;6.28;;;16.80;53.70;;;;;;4966321;29;20028;-61
2022/12/23 11:18:56;;;;;;;13.48;5.82;;;16.90;53.60;;;;;;4966200;29;20327;-62
2022/12/23 11:21:22;;;;;;;20.30;5.55;;;16.90;53.30;;;;;;4966206;29;20118;-62
2022/12/23 11:24:15;;;;;;;13.70;6.93;;;16.90;53.40;;;;;;4966065;29;20081;-62
2022/12/23 11:26:42;;;;;;;17.48;5.90;;;16.90;53.60;;;;;;4966004;29;20094;-63
2022/12/23 11:29:21;;;;;;;21.73;5.78;;;16.90;53.90;;;;;;4965851;29;20015;-61
2022/12/23 11:31:47;;;;;;;;;;;16.90;53.80;;;;;;4966474;29;20031;-62
2022/12/23 11:34:19;;;;;;;19.23;5.60;;;16.90;53.60;;;;;;4965852;29;19906;-61
2022/12/23 11:36:55;;;;;;;15.80;5.50;;;16.90;53.70;;;;;;4964671;29;20571;-63
2022/12/23 11:39:26;;;;;;;12.10;5.75;;;16.90;53.90;;;;;;4965880;29;20038;-61
2022/12/23 11:42:05;;;;;;;21.17;6.10;;;16.90;54.60;;;;;;4965810;29;20019;-61
2022/12/23 11:44:44;;;;;;;11.40;5.60;;;16.80;53.90;;;;;;4965675;29;20031;-62
2022/12/23 11:47:22;;;;;;;15.40;5.40;;;16.90;53.70;;;;;;4965668;29;20031;-62
2022/12/23 11:49:50;;;;;;;21.60;5.70;;;17.00;53.70;;;;;;4965628;29;20031;-64
2022/12/23 11:52:21;;;;;;;16.83;5.35;;;17.00;53.80;;;;;;4965596;29;20106;-62
2022/12/23 11:54:52;;;;;;;18.67;5.22;;;17.10;53.60;;;;;;4965419;29;20345;-61
2022/12/23 11:57:39;;;;;;;9.45;5.47;;;17.10;53.60;;;;;;4965554;29;20031;-61
2022/12/23 12:00:16;;;;;;;12.05;4.82;;;17.20;53.40;;;;;;4965521;29;20038;-62
2022/12/23 12:02:44;;;;;;;12.43;5.18;;;17.30;53.00;;;;;;4965383;29;20023;-61
2022/12/23 12:05:26;;;;;;;17.00;8.67;;;17.30;53.10;;;;;;4965123;29;20023;-62
2022/12/23 12:07:57;;;;;;;19.83;7.05;;;17.20;52.40;;;;;;4965194;29;20249;-62
2022/12/23 12:10:30;;;;;;;22.33;5.75;;;17.20;53.00;;;;;;4965050;29;20059;-62
2022/12/23 12:13:00;;;;;;;14.27;5.80;;;17.30;53.00;;;;;;4965539;29;20106;-64
2022/12/23 12:15:49;;;;;;;17.92;6.05;;;17.30;52.60;;;;;;4965152;29;20299;-61
2022/12/23 12:18:18;;;;;;;13.63;5.38;;;17.30;53.00;;;;;;4965217;29;20030;-62
2022/12/23 12:20:49;;;;;;;17.05;6.65;;;17.20;53.60;;;;;;4964246;28;20133;-62
2022/12/23 12:23:28;;;;;;;16.60;5.75;;;17.20;53.50;;;;;;4965059;29;20078;-62
2022/12/23 12:26:05;;;;;;;9.77;4.70;;;17.20;53.30;;;;;;4965081;29;20031;-61
2022/12/23 12:28:38;;;;;;;16.38;5.50;;;17.10;53.20;;;;;;4964782;29;20043;-61
2022/12/23 12:31:16;;;;;;;12.93;5.57;;;17.10;53.60;;;;;;4964879;29;20453;-62
2022/12/23 12:34:12;;;;;;;16.92;6.30;;;17.00;53.80;;;;;;4964692;29;20035;-61
2022/12/23 12:36:48;;;;;;;8.20;4.93;;;17.00;53.90;;;;;;4955066;29;20034;-62
2022/12/23 12:39:21;;;;;;;15.50;5.43;;;17.00;54.20;;;;;;4964719;29;20086;-62
2022/12/23 12:41:55;;;;;;;16.08;5.15;;;17.00;54.30;;;;;;4962906;29;20031;-63
2022/12/23 12:44:41;;;;;;;13.10;5.07;;;17.00;54.40;;;;;;4964857;29;20027;-61
2022/12/23 12:47:28;;;;;;;14.77;5.68;;;16.90;55.00;;;;;;4964676;29;20038;-62
2022/12/23 12:50:01;;;;;;;12.23;4.93;;;16.90;55.00;;;;;;4964507;29;20030;-62
2022/12/23 12:52:36;;;;;;;11.18;5.10;;;16.80;55.50;;;;;;4964621;29;20037;-61
2022/12/23 12:55:12;;;;;;;14.05;5.72;;;16.80;55.50;;;;;;4964426;29;20059;-63
2022/12/23 12:57:39;;;;;;;11.85;4.75;;;16.80;55.40;;;;;;4964470;29;20033;-62
2022/12/23 13:00:19;;;;;;;14.43;5.00;;;16.80;55.10;;;;;;4964297;29;20337;-63
2022/12/23 13:03:11;;;;;;;12.88;5.07;;;16.80;55.10;;;;;;4964377;29;20023;-63
2022/12/23 13:05:40;;;;;;;8.32;5.60;;;16.80;55.30;;;;;;4964269;29;20038;-63
2022/12/23 13:08:17;;;;;;;7.78;4.85;;;16.80;55.20;;;;;;4964116;29;20027;-63
2022/12/23 13:10:47;;;;;;;13.10;6.32;;;16.80;55.20;;;;;;4964049;29;20228;-61
2022/12/23 13:13:40;;;;;;;21.02;5.63;;;17.00;54.80;;;;;;4964182;29;20077;-62
2022/12/23 13:16:26;;;;;;;14.48;5.40;;;17.00;54.50;;;;;;4964071;29;20086;-61
2022/12/23 13:19:18;;;;;;;8.65;4.65;;;17.10;54.20;;;;;;4943328;29;20039;-61
2022/12/23 13:21:58;;;;;;;11.15;4.38;;;17.30;54.40;;;;;;4964017;29;20046;-61
2022/12/23 13:24:30;;;;;;;19.50;5.32;;;17.30;54.10;;;;;;4963747;29;20314;-61
2022/12/23 13:27:06;;;;;;;18.65;6.07;;;17.30;54.10;;;;;;4963820;29;20303;-61
2022/12/23 13:29:50;;;;;;;13.55;4.40;;;17.30;54.20;;;;;;4963724;29;20227;-63
2022/12/23 13:32:18;;;;;;;12.30;5.18;;;17.30;54.10;;;;;;4962887;28;20030;-63
2022/12/23 13:35:02;;;;;;;10.75;4.70;;;17.40;54.00;;;;;;4963519;29;20023;-62
2022/12/23 13:37:34;;;;;;;13.63;5.18;;;17.40;53.90;;;;;;4963464;29;20114;-62